createdAt,value
2019-01-31T00:02:29.456Z,-2.69
2019-01-31T00:05:19.186Z,-2.74
2019-01-31T00:08:05.812Z,-2.79
2019-01-31T00:10:59.273Z,-2.82
2019-01-31T00:13:47.888Z,-2.83
2019-01-31T00:16:53.192Z,-2.88
2019-01-31T00:19:31.001Z,-2.92
2019-01-31T00:22:36.294Z,-3.02
2019-01-31T00:25:17.050Z,-3.00
2019-01-31T00:28:13.470Z,-3.08
2019-01-31T00:31:15.607Z,-3.09
2019-01-31T00:34:08.835Z,-3.16
2019-01-31T00:37:11.564Z,-3.21
2019-01-31T00:40:01.756Z,-3.22
2019-01-31T00:43:08.939Z,-3.29
2019-01-31T00:46:29.938Z,-3.30
2019-01-31T00:49:27.580Z,-3.36
2019-01-31T00:51:59.713Z,-3.40
2019-01-31T00:54:43.774Z,-3.42
2019-01-31T00:57:18.922Z,-3.41
2019-01-31T00:59:53.965Z,-3.40
2019-01-31T01:02:59.793Z,-3.39
2019-01-31T01:05:57.793Z,-3.41
2019-01-31T01:08:29.957Z,-3.50
2019-01-31T01:11:16.190Z,-3.59
2019-01-31T01:13:54.410Z,-3.61
2019-01-31T01:16:35.766Z,-3.63
2019-01-31T01:19:16.983Z,-3.67
2019-01-31T01:22:21.205Z,-3.69
2019-01-31T01:24:56.027Z,-3.71
2019-01-31T01:28:12.147Z,-3.78
2019-01-31T01:31:16.462Z,-3.81
2019-01-31T01:34:00.492Z,-3.90
2019-01-31T01:36:35.353Z,-3.92
2019-01-31T01:39:19.201Z,-3.92
2019-01-31T01:42:25.439Z,-3.92
2019-01-31T01:45:14.201Z,-3.97
2019-01-31T01:47:46.364Z,-4.01
2019-01-31T01:50:39.937Z,-4.04
2019-01-31T01:53:42.599Z,-4.02
2019-01-31T01:56:32.520Z,-4.06
2019-01-31T01:59:10.152Z,-4.08
2019-01-31T02:02:23.838Z,-4.11
2019-01-31T02:04:55.979Z,-4.12
2019-01-31T02:08:01.977Z,-4.17
2019-01-31T02:10:39.525Z,-4.14
2019-01-31T02:13:20.575Z,-4.14
2019-01-31T02:16:13.904Z,-4.15
2019-01-31T02:18:46.144Z,-4.12
2019-01-31T02:21:30.398Z,-4.10
2019-01-31T02:24:11.662Z,-4.07
2019-01-31T02:27:05.259Z,-4.07
2019-01-31T02:29:46.186Z,-4.07
2019-01-31T02:32:41.423Z,-4.05
2019-01-31T02:35:39.067Z,-4.01
2019-01-31T02:38:11.275Z,-4.10
2019-01-31T02:41:15.292Z,-4.10
2019-01-31T02:44:01.760Z,-4.08
2019-01-31T02:46:42.692Z,-4.13
2019-01-31T02:49:47.467Z,-4.14
2019-01-31T02:52:34.684Z,-4.11
2019-01-31T02:55:27.530Z,-4.12
2019-01-31T02:58:14.820Z,-4.07
2019-01-31T03:00:58.996Z,-4.09
2019-01-31T03:03:39.880Z,-4.07
2019-01-31T03:06:36.334Z,-4.04
2019-01-31T03:09:32.990Z,-4.03
2019-01-31T03:12:29.406Z,-4.02
2019-01-31T03:15:01.818Z,-4.05
2019-01-31T03:17:39.870Z,-4.06
2019-01-31T03:20:40.904Z,-4.03
2019-01-31T03:23:28.383Z,-4.03
2019-01-31T03:26:00.671Z,-4.04
2019-01-31T03:28:57.119Z,-4.02
2019-01-31T03:31:45.702Z,-3.99
2019-01-31T03:34:46.375Z,-4.00
2019-01-31T03:37:33.635Z,-4.00
2019-01-31T03:40:20.952Z,-4.03
2019-01-31T03:46:26.170Z,-3.95
2019-01-31T03:49:19.617Z,-4.04
2019-01-31T03:52:25.545Z,-4.04
2019-01-31T03:55:28.875Z,-4.04
2019-01-31T03:58:31.338Z,-4.06
2019-01-31T04:01:29.304Z,-4.07
2019-01-31T04:04:04.265Z,-4.07
2019-01-31T04:06:31.001Z,-4.07
2019-01-31T04:08:57.791Z,-4.04
2019-01-31T04:11:24.552Z,-3.99
2019-01-31T04:13:51.259Z,-3.94
2019-01-31T04:16:18.038Z,-3.90
2019-01-31T04:18:44.761Z,-3.88
2019-01-31T04:21:11.497Z,-3.87
2019-01-31T04:23:38.309Z,-3.85
2019-01-31T04:26:05.014Z,-3.82
2019-01-31T04:28:31.728Z,-3.81
2019-01-31T04:30:58.534Z,-3.81
2019-01-31T04:33:25.293Z,-3.79
2019-01-31T04:35:52.018Z,-3.77
2019-01-31T04:38:19.976Z,-3.73
2019-01-31T04:40:46.991Z,-3.73
2019-01-31T04:43:13.718Z,-3.73
2019-01-31T04:45:40.589Z,-3.73
2019-01-31T04:48:07.438Z,-3.73
2019-01-31T04:50:34.142Z,-3.74
2019-01-31T04:53:00.993Z,-3.74
2019-01-31T04:55:27.743Z,-3.76
2019-01-31T04:57:54.464Z,-3.75
2019-01-31T05:00:21.316Z,-3.73
2019-01-31T05:02:48.076Z,-3.73
2019-01-31T05:05:14.787Z,-3.72
2019-01-31T05:07:41.567Z,-3.73
2019-01-31T05:10:11.420Z,-3.71
2019-01-31T05:12:38.137Z,-3.73
2019-01-31T05:15:09.572Z,-3.75
2019-01-31T05:17:36.292Z,-3.71
2019-01-31T05:20:10.677Z,-3.68
2019-01-31T05:22:37.466Z,-3.71
2019-01-31T05:25:06.913Z,-3.70
2019-01-31T05:27:33.619Z,-3.71
2019-01-31T05:30:00.405Z,-3.72
2019-01-31T05:32:27.125Z,-3.72
2019-01-31T05:34:53.838Z,-3.72
2019-01-31T05:37:20.640Z,-3.72
2019-01-31T05:39:47.391Z,-3.72
2019-01-31T05:42:14.165Z,-3.70
2019-01-31T05:44:40.964Z,-3.71
2019-01-31T05:47:07.689Z,-3.71
2019-01-31T05:49:34.432Z,-3.71
2019-01-31T05:52:01.407Z,-3.69
2019-01-31T05:54:28.090Z,-3.71
2019-01-31T05:56:54.826Z,-3.70
2019-01-31T05:59:21.645Z,-3.67
2019-01-31T06:01:48.365Z,-3.65
2019-01-31T06:04:15.095Z,-3.67
2019-01-31T06:06:41.889Z,-3.66
2019-01-31T06:09:08.614Z,-3.65
2019-01-31T06:11:35.347Z,-3.65
2019-01-31T06:14:02.143Z,-3.64
2019-01-31T06:16:28.865Z,-3.63
2019-01-31T06:18:55.603Z,-3.61
2019-01-31T06:21:22.391Z,-3.63
2019-01-31T06:23:49.117Z,-3.62
2019-01-31T06:26:15.872Z,-3.61
2019-01-31T06:28:42.668Z,-3.59
2019-01-31T06:31:09.406Z,-3.58
2019-01-31T06:33:36.144Z,-3.60
2019-01-31T06:36:02.964Z,-3.60
2019-01-31T06:38:29.677Z,-3.56
2019-01-31T06:40:56.415Z,-3.55
2019-01-31T06:43:23.330Z,-3.49
2019-01-31T06:45:50.047Z,-3.50
2019-01-31T06:48:16.776Z,-3.48
2019-01-31T06:50:43.587Z,-3.44
2019-01-31T06:53:10.344Z,-3.42
2019-01-31T06:55:37.079Z,-3.41
2019-01-31T06:58:03.866Z,-3.36
2019-01-31T07:00:30.608Z,-3.33
2019-01-31T07:02:57.338Z,-3.32
2019-01-31T07:05:24.148Z,-3.33
2019-01-31T07:07:50.904Z,-3.29
2019-01-31T07:10:23.293Z,-3.24
2019-01-31T07:12:50.104Z,-3.24
2019-01-31T07:15:16.835Z,-3.24
2019-01-31T07:17:43.581Z,-3.22
2019-01-31T07:20:15.926Z,-3.19
2019-01-31T07:22:42.637Z,-3.15
2019-01-31T07:25:19.062Z,-3.17
2019-01-31T07:27:45.820Z,-3.17
2019-01-31T07:30:18.732Z,-3.19
2019-01-31T07:32:45.543Z,-3.18
2019-01-31T07:35:13.155Z,-3.17
2019-01-31T07:37:39.900Z,-3.14
2019-01-31T07:40:13.756Z,-3.12
2019-01-31T07:42:40.523Z,-3.09
2019-01-31T07:45:26.978Z,-3.10
2019-01-31T07:47:53.721Z,-3.05
2019-01-31T07:50:20.460Z,-3.05
2019-01-31T07:52:47.260Z,-3.01
2019-01-31T07:55:14.017Z,-2.96
2019-01-31T07:57:40.807Z,-2.86
2019-01-31T08:00:21.178Z,-2.79
2019-01-31T08:02:47.898Z,-2.77
2019-01-31T08:05:17.957Z,-2.76
2019-01-31T08:07:46.120Z,-2.73
2019-01-31T08:10:29.513Z,-2.71
2019-01-31T08:12:56.309Z,-2.64
2019-01-31T08:15:23.066Z,-2.67
2019-01-31T08:17:49.800Z,-2.65
2019-01-31T08:20:19.075Z,-2.62
2019-01-31T08:22:45.802Z,-2.57
2019-01-31T08:25:19.522Z,-2.53
2019-01-31T08:27:46.554Z,-2.50
2019-01-31T08:30:37.905Z,-2.46
2019-01-31T08:33:04.556Z,-2.38
2019-01-31T08:35:31.295Z,-2.35
2019-01-31T08:37:58.049Z,-2.26
2019-01-31T08:40:24.853Z,-2.23
2019-01-31T08:42:51.572Z,-2.17
2019-01-31T08:45:18.411Z,-2.15
2019-01-31T08:47:45.233Z,-2.08
2019-01-31T08:50:18.095Z,-2.02
2019-01-31T08:52:44.829Z,-1.99
2019-01-31T08:55:11.648Z,-1.99
2019-01-31T08:57:38.387Z,-1.96
2019-01-31T09:00:15.304Z,-1.90
2019-01-31T09:02:42.063Z,-1.88
2019-01-31T09:05:08.797Z,-1.87
2019-01-31T09:07:35.617Z,-1.82
2019-01-31T09:10:06.579Z,-1.79
2019-01-31T09:12:33.316Z,-1.72
2019-01-31T09:15:00.306Z,-1.68
2019-01-31T09:17:27.032Z,-1.60
2019-01-31T09:19:53.772Z,-1.52
2019-01-31T09:22:24.567Z,-1.38
2019-01-31T09:25:05.840Z,-1.39
2019-01-31T09:27:47.234Z,-1.32
2019-01-31T09:30:27.681Z,-1.32
2019-01-31T09:33:15.277Z,-1.34
2019-01-31T09:36:02.874Z,-1.36
2019-01-31T09:39:13.853Z,-1.39
2019-01-31T09:41:54.937Z,-1.38
2019-01-31T09:44:59.895Z,-1.42
2019-01-31T09:47:59.419Z,-1.33
2019-01-31T09:50:42.937Z,-1.23
2019-01-31T09:53:24.284Z,-1.15
2019-01-31T09:56:14.593Z,-1.07
2019-01-31T09:58:49.609Z,-0.97
2019-01-31T10:01:56.260Z,-0.95
2019-01-31T10:08:10.488Z,-0.86
2019-01-31T10:11:02.351Z,-0.92
2019-01-31T10:13:56.001Z,-0.93
2019-01-31T10:16:37.140Z,-0.81
2019-01-31T10:19:33.215Z,-0.78
2019-01-31T10:22:26.469Z,-0.68
2019-01-31T10:25:45.855Z,-0.66
2019-01-31T10:28:26.880Z,-0.63
2019-01-31T10:31:17.245Z,-0.61
2019-01-31T10:34:16.026Z,-0.56
2019-01-31T10:37:12.312Z,-0.49
2019-01-31T10:40:02.686Z,-0.44
2019-01-31T10:43:09.972Z,-0.42
2019-01-31T10:45:53.795Z,-0.47
2019-01-31T10:48:48.003Z,-0.44
2019-01-31T10:51:53.828Z,-0.31
2019-01-31T10:54:43.938Z,-0.23
2019-01-31T10:57:34.451Z,-0.14
2019-01-31T11:00:09.692Z,-0.14
2019-01-31T11:02:50.662Z,-0.13
2019-01-31T11:05:31.320Z,-0.08
2019-01-31T11:08:11.758Z,-0.05
2019-01-31T11:11:02.243Z,-0.01
2019-01-31T11:13:57.996Z,0.05
2019-01-31T11:16:45.490Z,0.07
2019-01-31T11:19:44.492Z,0.11
2019-01-31T11:22:41.313Z,0.14
2019-01-31T11:26:00.147Z,0.23
2019-01-31T11:29:01.435Z,0.26
2019-01-31T11:31:42.542Z,0.26
2019-01-31T11:34:32.707Z,0.29
2019-01-31T11:40:13.514Z,0.33
2019-01-31T11:43:11.961Z,0.23
2019-01-31T11:46:02.646Z,0.09
2019-01-31T11:48:34.887Z,-0.06
2019-01-31T11:51:38.946Z,-0.16
2019-01-31T11:54:29.247Z,-0.17
2019-01-31T11:57:16.665Z,-0.27
2019-01-31T11:59:43.456Z,-0.37
2019-01-31T12:02:10.245Z,-0.43
2019-01-31T12:04:37.097Z,-0.41
2019-01-31T12:07:03.860Z,-0.38
2019-01-31T12:09:30.622Z,-0.37
2019-01-31T12:11:57.477Z,-0.38
2019-01-31T12:14:24.223Z,-0.41
2019-01-31T12:16:50.973Z,-0.44
2019-01-31T12:19:17.767Z,-0.48
2019-01-31T12:21:44.488Z,-0.52
2019-01-31T12:24:16.585Z,-0.59
2019-01-31T12:26:39.851Z,-0.68
2019-01-31T12:29:06.591Z,-0.75
2019-01-31T12:31:33.333Z,-0.92
2019-01-31T12:34:00.350Z,-0.96
2019-01-31T12:36:27.085Z,-1.00
2019-01-31T12:38:55.046Z,-1.06
2019-01-31T12:41:22.087Z,-1.14
2019-01-31T12:43:48.825Z,-1.18
2019-01-31T12:46:15.547Z,-1.21
2019-01-31T12:48:42.365Z,-1.22
2019-01-31T12:51:09.126Z,-1.20
2019-01-31T12:53:35.898Z,-1.28
2019-01-31T12:56:02.771Z,-1.29
2019-01-31T12:58:33.706Z,-1.34
2019-01-31T13:00:58.035Z,-1.33
2019-01-31T13:03:24.846Z,-1.36
2019-01-31T13:05:51.580Z,-1.36
2019-01-31T13:08:18.904Z,-1.36
2019-01-31T13:10:45.729Z,-1.34
2019-01-31T13:13:12.474Z,-1.33
2019-01-31T13:15:39.219Z,-1.35
2019-01-31T13:18:06.110Z,-1.36
2019-01-31T13:20:32.823Z,-1.46
2019-01-31T13:22:59.555Z,-1.43
2019-01-31T13:25:26.337Z,-1.45
2019-01-31T13:27:53.088Z,-1.46
2019-01-31T13:30:21.744Z,-1.53
2019-01-31T13:32:49.454Z,-1.57
2019-01-31T13:35:16.181Z,-1.56
2019-01-31T13:37:43.031Z,-1.57
2019-01-31T13:40:14.402Z,-1.59
2019-01-31T13:42:41.238Z,-1.59
2019-01-31T13:45:15.128Z,-1.58
2019-01-31T13:47:41.936Z,-1.56
2019-01-31T13:50:12.657Z,-1.52
2019-01-31T13:52:39.483Z,-1.45
2019-01-31T13:55:23.405Z,-1.36
2019-01-31T13:57:50.141Z,-1.30
2019-01-31T14:00:20.945Z,-1.22
2019-01-31T14:02:47.700Z,-1.04
2019-01-31T14:05:14.448Z,-0.88
2019-01-31T14:07:41.256Z,-0.68
2019-01-31T14:10:12.759Z,-0.50
2019-01-31T14:12:39.507Z,-0.32
2019-01-31T14:15:11.259Z,-0.27
2019-01-31T14:17:38.072Z,-0.15
2019-01-31T14:20:10.232Z,-0.05
2019-01-31T14:22:42.966Z,0.04
2019-01-31T14:25:06.358Z,0.07
2019-01-31T14:27:33.301Z,0.09
2019-01-31T14:30:00.334Z,0.08
2019-01-31T14:32:27.140Z,0.11
2019-01-31T14:34:53.886Z,0.12
2019-01-31T14:37:20.626Z,0.15
2019-01-31T14:39:47.395Z,0.15
2019-01-31T14:42:14.110Z,0.14
2019-01-31T14:44:40.887Z,0.14
2019-01-31T14:47:07.672Z,0.07
2019-01-31T14:49:34.507Z,0.07
2019-01-31T14:52:01.224Z,0.12
2019-01-31T14:54:28.116Z,0.07
2019-01-31T14:56:54.832Z,0.10
2019-01-31T14:59:21.579Z,0.04
2019-01-31T15:02:00.156Z,0.07
2019-01-31T15:04:35.389Z,0.11
2019-01-31T15:07:08.615Z,0.15
2019-01-31T15:09:40.960Z,0.16
2019-01-31T15:12:13.279Z,0.16
2019-01-31T15:14:47.526Z,0.13
2019-01-31T15:17:20.851Z,0.13
2019-01-31T15:19:57.551Z,0.14
2019-01-31T15:22:24.376Z,0.10
2019-01-31T15:24:51.100Z,0.10
2019-01-31T15:27:17.854Z,0.11
2019-01-31T15:29:50.775Z,0.09
2019-01-31T15:32:19.860Z,0.10
2019-01-31T15:34:49.183Z,0.06
2019-01-31T15:37:24.588Z,0.06
2019-01-31T15:39:59.441Z,0.01
2019-01-31T15:42:31.129Z,-0.02
2019-01-31T15:44:57.840Z,-0.04
2019-01-31T15:47:24.607Z,-0.07
2019-01-31T15:49:51.457Z,-0.12
2019-01-31T15:52:18.192Z,-0.14
2019-01-31T15:54:48.323Z,-0.15
2019-01-31T15:57:16.829Z,-0.20
2019-01-31T15:59:43.644Z,-0.25
2019-01-31T16:02:10.380Z,-0.24
2019-01-31T16:04:37.205Z,-0.26
2019-01-31T16:07:03.956Z,-0.33
2019-01-31T16:09:30.741Z,-0.33
2019-01-31T16:11:59.743Z,-0.34
2019-01-31T16:14:26.124Z,-0.38
2019-01-31T16:16:52.806Z,-0.45
2019-01-31T16:19:19.648Z,-0.47
2019-01-31T16:21:46.487Z,-0.49
2019-01-31T16:24:13.226Z,-0.52
2019-01-31T16:26:40.135Z,-0.55
2019-01-31T16:29:06.874Z,-0.58
2019-01-31T16:31:33.611Z,-0.59
2019-01-31T16:34:00.407Z,-0.61
2019-01-31T16:36:27.241Z,-0.64
2019-01-31T16:38:53.971Z,-0.66
2019-01-31T16:41:20.770Z,-0.67
2019-01-31T16:43:47.488Z,-0.69
2019-01-31T16:46:14.216Z,-0.72
2019-01-31T16:48:41.049Z,-0.75
2019-01-31T16:51:07.798Z,-0.83
2019-01-31T16:53:34.526Z,-0.78
2019-01-31T16:56:01.413Z,-0.80
2019-01-31T16:58:28.155Z,-0.83
2019-01-31T17:00:54.888Z,-0.86
2019-01-31T17:03:21.760Z,-0.85
2019-01-31T17:05:48.472Z,-0.86
2019-01-31T17:08:15.215Z,-0.89
2019-01-31T17:10:42.046Z,-0.93
2019-01-31T17:13:08.771Z,-0.96
2019-01-31T17:15:35.544Z,-0.97
2019-01-31T17:18:02.354Z,-1.02
2019-01-31T17:20:36.227Z,-1.04
2019-01-31T17:23:02.905Z,-1.10
2019-01-31T17:25:29.776Z,-1.16
2019-01-31T17:27:56.530Z,-1.21
2019-01-31T17:30:26.570Z,-1.27
2019-01-31T17:32:53.473Z,-1.32
2019-01-31T17:35:20.214Z,-1.36
2019-01-31T17:37:48.359Z,-1.38
2019-01-31T17:40:26.316Z,-1.44
2019-01-31T17:42:53.055Z,-1.48
2019-01-31T17:45:30.027Z,-1.56
2019-01-31T17:47:51.866Z,-1.59
2019-01-31T17:50:21.794Z,-1.64
2019-01-31T17:52:48.737Z,-1.71
2019-01-31T17:55:19.949Z,-1.72
2019-01-31T17:57:46.711Z,-1.75
2019-01-31T18:00:29.250Z,-1.77
2019-01-31T18:02:56.056Z,-1.82
2019-01-31T18:05:24.619Z,-1.89
2019-01-31T18:07:53.267Z,-1.91
2019-01-31T18:10:22.275Z,-1.92
2019-01-31T18:12:49.025Z,-1.94
2019-01-31T18:15:18.849Z,-1.98
2019-01-31T18:17:45.696Z,-2.02
2019-01-31T18:20:18.410Z,-2.05
2019-01-31T18:22:45.205Z,-2.08
2019-01-31T18:25:12.081Z,-2.13
2019-01-31T18:27:38.758Z,-2.14
2019-01-31T18:30:11.054Z,-2.18
2019-01-31T18:32:37.792Z,-2.19
2019-01-31T18:35:08.549Z,-2.26
2019-01-31T18:37:35.330Z,-2.32
2019-01-31T18:40:02.750Z,-2.35
2019-01-31T18:42:29.727Z,-2.40
2019-01-31T18:44:56.634Z,-2.43
2019-01-31T18:47:25.201Z,-2.50
2019-01-31T18:49:51.972Z,-2.55
2019-01-31T18:52:18.752Z,-2.59
2019-01-31T18:54:45.480Z,-2.63
2019-01-31T18:57:12.870Z,-2.69
2019-01-31T18:59:39.883Z,-2.76
2019-01-31T19:02:06.617Z,-2.77
2019-01-31T19:04:33.339Z,-2.82
2019-01-31T19:07:00.254Z,-2.85
2019-01-31T19:09:27.017Z,-2.91
2019-01-31T19:11:53.751Z,-2.98
2019-01-31T19:14:20.552Z,-2.99
2019-01-31T19:16:47.498Z,-3.02
2019-01-31T19:19:14.225Z,-3.06
2019-01-31T19:21:41.010Z,-3.08
2019-01-31T19:24:07.740Z,-3.12
2019-01-31T19:26:34.479Z,-3.14
2019-01-31T19:29:01.351Z,-3.19
2019-01-31T19:31:28.094Z,-3.21
2019-01-31T19:33:54.862Z,-3.25
2019-01-31T19:36:21.631Z,-3.28
2019-01-31T19:38:48.361Z,-3.27
2019-01-31T19:41:15.091Z,-3.30
2019-01-31T19:43:41.899Z,-3.33
2019-01-31T19:46:16.186Z,-3.33
2019-01-31T19:48:37.173Z,-3.33
2019-01-31T19:51:03.981Z,-3.34
2019-01-31T19:53:30.725Z,-3.36
2019-01-31T19:55:57.473Z,-3.35
2019-01-31T19:58:24.304Z,-3.34
2019-01-31T20:00:51.031Z,-3.31
2019-01-31T20:03:17.778Z,-3.30
2019-01-31T20:05:44.579Z,-3.34
2019-01-31T20:08:11.309Z,-3.33
2019-01-31T20:10:38.061Z,-3.38
2019-01-31T20:13:04.869Z,-3.38
2019-01-31T20:15:31.601Z,-3.39
2019-01-31T20:17:58.344Z,-3.39
2019-01-31T20:20:27.550Z,-3.36
2019-01-31T20:22:54.766Z,-3.39
2019-01-31T20:25:21.509Z,-3.38
2019-01-31T20:27:48.295Z,-3.39
2019-01-31T20:30:24.722Z,-3.38
2019-01-31T20:32:52.309Z,-3.38
2019-01-31T20:35:21.149Z,-3.40
2019-01-31T20:37:47.889Z,-3.41
2019-01-31T20:40:27.084Z,-3.39
2019-01-31T20:42:53.809Z,-3.36
2019-01-31T20:45:20.535Z,-3.39
2019-01-31T20:47:47.915Z,-3.36
2019-01-31T20:50:19.209Z,-3.33
2019-01-31T20:52:45.943Z,-3.33
2019-01-31T20:55:14.364Z,-3.33
2019-01-31T20:57:41.217Z,-3.35
2019-01-31T21:00:16.432Z,-3.31
2019-01-31T21:02:43.166Z,-3.31
2019-01-31T21:05:10.383Z,-3.31
2019-01-31T21:07:37.163Z,-3.30
2019-01-31T21:10:08.318Z,-3.28
2019-01-31T21:12:35.043Z,-3.29
2019-01-31T21:15:01.856Z,-3.28
2019-01-31T21:17:28.583Z,-3.28
2019-01-31T21:19:55.318Z,-3.24
2019-01-31T21:22:22.105Z,-3.19
2019-01-31T21:24:48.833Z,-3.21
2019-01-31T21:27:15.561Z,-3.19
2019-01-31T21:29:42.424Z,-3.17
2019-01-31T21:32:09.167Z,-3.15
2019-01-31T21:34:35.931Z,-3.14
2019-01-31T21:37:04.657Z,-3.11
2019-01-31T21:39:31.268Z,-3.13
2019-01-31T21:41:58.007Z,-3.13
2019-01-31T21:44:24.831Z,-3.08
2019-01-31T21:47:02.431Z,-3.06
2019-01-31T21:49:20.106Z,-3.03
2019-01-31T21:51:46.913Z,-3.05
2019-01-31T21:54:13.621Z,-3.06
2019-01-31T21:56:40.339Z,-3.04
2019-01-31T21:59:08.889Z,-3.04
2019-01-31T22:01:35.776Z,-3.05
2019-01-31T22:04:02.496Z,-3.06
2019-01-31T22:06:29.295Z,-3.06
2019-01-31T22:08:56.021Z,-3.07
2019-01-31T22:11:22.738Z,-3.04
2019-01-31T22:13:49.559Z,-3.04
2019-01-31T22:16:16.272Z,-3.03
2019-01-31T22:18:43.015Z,-3.00
2019-01-31T22:21:09.794Z,-3.01
2019-01-31T22:23:36.534Z,-3.05
2019-01-31T22:26:03.265Z,-3.07
2019-01-31T22:28:30.051Z,-3.06
2019-01-31T22:30:56.770Z,-3.04
2019-01-31T22:33:23.505Z,-3.01
2019-01-31T22:35:50.305Z,-2.99
2019-01-31T22:38:17.042Z,-2.97
2019-01-31T22:40:43.791Z,-2.96
2019-01-31T22:43:10.573Z,-2.92
2019-01-31T22:45:37.318Z,-2.92
2019-01-31T22:48:04.681Z,-2.96
2019-01-31T22:50:31.501Z,-2.95
2019-01-31T22:52:58.225Z,-2.91
2019-01-31T22:55:25.553Z,-2.85
2019-01-31T22:57:52.536Z,-2.83
2019-01-31T23:00:42.371Z,-2.85
2019-01-31T23:03:09.292Z,-2.82
2019-01-31T23:05:36.024Z,-2.82
2019-01-31T23:08:02.754Z,-2.78
2019-01-31T23:10:29.569Z,-2.75
2019-01-31T23:12:56.305Z,-2.74
2019-01-31T23:15:23.040Z,-2.72
2019-01-31T23:17:49.820Z,-2.68
2019-01-31T23:20:16.555Z,-2.64
2019-01-31T23:22:43.325Z,-2.61
2019-01-31T23:25:10.172Z,-2.60
2019-01-31T23:27:36.905Z,-2.58
2019-01-31T23:30:11.912Z,-2.58
2019-01-31T23:32:38.644Z,-2.60
2019-01-31T23:35:07.776Z,-2.59
2019-01-31T23:37:34.566Z,-2.58
2019-01-31T23:40:01.407Z,-2.57
2019-01-31T23:42:28.220Z,-2.57
2019-01-31T23:44:54.989Z,-2.59
2019-01-31T23:47:21.743Z,-2.55
2019-01-31T23:49:48.456Z,-2.53
2019-01-31T23:52:15.246Z,-2.52
2019-01-31T23:54:41.998Z,-2.53
2019-01-31T23:57:08.721Z,-2.50
2019-01-31T23:59:35.508Z,-2.52
